Time;durP1;ratioP1;P1;durP2;ratioP2;P2;SDS_P1;SDS_P2;PMS_P1;PMS_P2;Temp;Humidity;BMP_temperature;BMP_pressure;BME280_temperature;BME280_humidity;BME280_pressure;Samples;Min_cycle;Max_cycle;Signal;HPM_P1;HPM_P2
2023/07/14 00:00:29;;;;;;;0.75;0.63;;;15.70;67.00;;;;;;4987873;28;20080;-72
2023/07/14 00:02:55;;;;;;;4.80;0.57;;;15.60;84.90;;;;;;4969443;28;20149;-73
2023/07/14 00:05:35;;;;;;;1.08;0.60;;;15.60;90.60;;;;;;5018442;28;20599;-73
2023/07/14 00:08:03;;;;;;;0.90;0.60;;;15.60;83.70;;;;;;4982312;28;20038;-73
2023/07/14 00:10:35;;;;;;;1.30;0.77;;;15.50;87.50;;;;;;4990264;28;20053;-74
2023/07/14 00:13:09;;;;;;;0.77;0.60;;;15.50;98.60;;;;;;4991251;28;20133;-72
2023/07/14 00:15:39;;;;;;;1.35;0.73;;;15.40;96.80;;;;;;4991776;28;20034;-72
2023/07/14 00:18:24;;;;;;;0.70;0.70;;;15.50;99.90;;;;;;4984977;28;20046;-73
2023/07/14 00:20:51;;;;;;;1.00;0.70;;;15.40;99.90;;;;;;4984348;28;20038;-73
2023/07/14 00:23:17;;;;;;;1.00;0.90;;;15.40;99.90;;;;;;4984291;28;20567;-73
2023/07/14 00:25:45;;;;;;;1.20;0.70;;;15.40;99.90;;;;;;5000890;28;20050;-73
2023/07/14 00:28:19;;;;;;;0.85;0.70;;;15.40;99.90;;;;;;4982368;28;20148;-73
2023/07/14 00:30:45;;;;;;;1.00;0.70;;;15.40;99.90;;;;;;4982918;28;20201;-73
2023/07/14 00:33:19;;;;;;;0.88;0.80;;;15.40;99.90;;;;;;4998781;28;20474;-73
2023/07/14 00:35:47;;;;;;;1.33;0.70;;;15.40;99.90;;;;;;4985091;28;20053;-73
2023/07/14 00:38:13;;;;;;;0.85;0.70;;;15.40;99.90;;;;;;4985437;28;20132;-73
2023/07/14 00:40:47;;;;;;;0.70;0.70;;;15.40;99.90;;;;;;4990362;28;20049;-73
2023/07/14 00:43:22;;;;;;;1.42;0.68;;;15.40;99.90;;;;;;4982364;28;20058;-73
2023/07/14 00:45:50;;;;;;;1.40;0.77;;;15.40;99.90;;;;;;4982940;28;20042;-73
2023/07/14 00:48:20;;;;;;;1.05;0.82;;;15.40;99.90;;;;;;4987663;28;20603;-73
2023/07/14 00:51:05;;;;;;;0.80;0.73;;;15.40;99.90;;;;;;4987741;28;20042;-73
2023/07/14 00:53:40;;;;;;;1.42;0.80;;;15.30;99.90;;;;;;4969152;28;20038;-73
2023/07/14 00:56:14;;;;;;;1.80;0.80;;;15.30;99.90;;;;;;4984455;28;20074;-73
2023/07/14 00:58:46;;;;;;;0.70;0.70;;;15.30;99.90;;;;;;4985339;28;20046;-73
2023/07/14 01:01:21;;;;;;;1.23;0.90;;;15.30;99.90;;;;;;4983507;28;20038;-73
2023/07/14 01:03:55;;;;;;;1.00;0.90;;;15.30;99.90;;;;;;4986008;28;20386;-73
2023/07/14 01:06:23;;;;;;;1.50;1.25;;;15.20;99.90;;;;;;4984299;28;20038;-73
2023/07/14 01:08:55;;;;;;;1.10;1.00;;;15.20;99.90;;;;;;4985166;28;20080;-73
2023/07/14 01:11:26;;;;;;;1.55;1.10;;;15.20;99.90;;;;;;4984031;28;20030;-73
2023/07/14 01:13:53;;;;;;;1.50;1.00;;;15.20;99.90;;;;;;4985066;28;20111;-73
2023/07/14 01:16:19;;;;;;;1.02;0.82;;;15.10;99.90;;;;;;4969125;28;20765;-73
2023/07/14 01:18:45;;;;;;;;;;;15.10;99.90;;;;;;4986041;28;20130;-73
2023/07/14 01:21:11;;;;;;;1.40;1.10;;;15.10;99.90;;;;;;4968327;28;20016;-73
2023/07/14 01:23:51;;;;;;;;;;;15.10;99.90;;;;;;4988194;28;20046;-73
2023/07/14 01:26:41;;;;;;;1.48;1.10;;;15.10;99.90;;;;;;5020790;28;19928;-72
2023/07/14 01:29:08;;;;;;;2.30;1.20;;;15.10;99.90;;;;;;4986957;28;20054;-72
2023/07/14 01:31:35;;;;;;;1.85;1.50;;;15.00;99.90;;;;;;5022237;28;20050;-72
2023/07/14 01:34:02;;;;;;;1.65;1.15;;;15.00;99.90;;;;;;4989202;28;20103;-72
2023/07/14 01:36:28;;;;;;;1.50;1.08;;;15.00;99.90;;;;;;4989442;28;20042;-72
2023/07/14 01:38:54;;;;;;;1.10;1.00;;;14.90;99.90;;;;;;4972942;28;20049;-72
2023/07/14 01:41:20;;;;;;;;;;;14.90;99.90;;;;;;4989352;28;20560;-73
2023/07/14 01:43:47;;;;;;;1.52;1.10;;;14.90;99.90;;;;;;4989909;28;20004;-74
2023/07/14 01:46:19;;;;;;;1.35;1.10;;;14.80;99.90;;;;;;4989437;28;20115;-73
2023/07/14 01:48:52;;;;;;;1.48;1.17;;;14.80;99.90;;;;;;4988713;28;20454;-73
2023/07/14 01:51:19;;;;;;;2.05;1.42;;;14.80;99.90;;;;;;4990344;28;20087;-73
2023/07/14 01:53:55;;;;;;;1.50;1.00;;;14.70;99.90;;;;;;4988600;28;20042;-73
2023/07/14 01:56:23;;;;;;;1.30;1.10;;;14.70;99.90;;;;;;4989169;28;20047;-73
2023/07/14 01:58:57;;;;;;;1.88;1.10;;;14.70;99.90;;;;;;4988889;28;20432;-73
2023/07/14 02:01:25;;;;;;;1.23;1.00;;;14.70;99.90;;;;;;4985895;28;20177;-73
2023/07/14 02:03:54;;;;;;;1.70;1.20;;;14.60;99.90;;;;;;5003198;28;20046;-73
2023/07/14 02:06:20;;;;;;;1.95;1.20;;;14.60;99.90;;;;;;4988143;28;20082;-73
2023/07/14 02:08:46;;;;;;;1.30;1.10;;;14.50;99.90;;;;;;5020916;28;20081;-73
2023/07/14 02:11:17;;;;;;;1.67;1.27;;;14.60;99.90;;;;;;4989696;28;20132;-73
2023/07/14 02:13:44;;;;;;;1.35;1.20;;;14.60;99.90;;;;;;4988347;28;20557;-73
2023/07/14 02:16:15;;;;;;;1.60;1.30;;;14.50;99.90;;;;;;4988320;28;20066;-73
2023/07/14 02:18:42;;;;;;;1.30;1.00;;;14.50;99.90;;;;;;4986777;28;20038;-73
2023/07/14 02:21:11;;;;;;;1.45;1.00;;;14.50;99.90;;;;;;4989687;28;20498;-74
2023/07/14 02:23:39;;;;;;;1.42;1.20;;;14.50;99.90;;;;;;4985759;28;20050;-73
2023/07/14 02:26:24;;;;;;;1.98;1.35;;;14.50;99.90;;;;;;4997518;28;20509;-73
2023/07/14 02:28:49;;;;;;;2.13;1.40;;;14.50;99.90;;;;;;5004312;28;20106;-72
2023/07/14 02:31:40;;;;;;;1.58;1.15;;;14.50;99.90;;;;;;4987899;28;20086;-73
2023/07/14 02:34:14;;;;;;;1.38;1.20;;;14.50;99.90;;;;;;4985815;28;20444;-73
2023/07/14 02:36:58;;;;;;;2.00;1.60;;;14.50;99.90;;;;;;4986456;28;20043;-73
2023/07/14 02:39:25;;;;;;;1.52;1.40;;;14.60;99.90;;;;;;4999528;28;20043;-73
2023/07/14 02:41:57;;;;;;;1.55;1.30;;;14.60;99.90;;;;;;4992228;28;20125;-73
2023/07/14 02:44:29;;;;;;;1.60;1.20;;;14.50;99.90;;;;;;4972173;28;20448;-73
2023/07/14 02:47:04;;;;;;;1.63;1.30;;;14.60;99.90;;;;;;4985381;28;20043;-73
2023/07/14 02:49:30;;;;;;;1.52;1.20;;;14.60;99.90;;;;;;4987923;28;20049;-74
2023/07/14 02:51:55;;;;;;;1.42;1.20;;;14.60;99.90;;;;;;4988021;28;20046;-74
2023/07/14 02:54:23;;;;;;;1.20;1.08;;;14.50;99.90;;;;;;4988277;28;20089;-74
2023/07/14 02:56:49;;;;;;;1.83;1.35;;;14.60;99.90;;;;;;4987710;28;20050;-73
2023/07/14 02:59:16;;;;;;;1.58;1.10;;;14.50;99.90;;;;;;5004125;28;20057;-73
2023/07/14 03:01:42;;;;;;;1.20;1.08;;;14.50;99.90;;;;;;4999967;28;20058;-73
2023/07/14 03:04:09;;;;;;;1.30;1.10;;;14.60;99.90;;;;;;4987755;28;20061;-74
2023/07/14 03:06:35;;;;;;;1.15;1.00;;;14.50;99.90;;;;;;4994699;28;20397;-74
2023/07/14 03:09:01;;;;;;;2.40;1.60;;;14.50;99.90;;;;;;4991811;28;20038;-74
2023/07/14 03:11:27;;;;;;;2.03;1.52;;;14.50;99.90;;;;;;4971467;28;20487;-73
2023/07/14 03:13:52;;;;;;;2.45;1.70;;;14.50;99.90;;;;;;4987633;28;20042;-73
2023/07/14 03:16:19;;;;;;;1.67;1.52;;;14.50;99.90;;;;;;4990380;28;20032;-73
2023/07/14 03:18:45;;;;;;;1.75;1.58;;;14.40;99.90;;;;;;4987535;28;20401;-73
2023/07/14 03:21:11;;;;;;;2.28;1.67;;;14.40;99.90;;;;;;4987382;28;20038;-73
2023/07/14 03:23:37;;;;;;;2.40;1.48;;;14.30;99.90;;;;;;4989060;28;20500;-73
2023/07/14 03:26:07;;;;;;;1.48;1.38;;;14.30;99.90;;;;;;5000466;28;20046;-73
2023/07/14 03:28:34;;;;;;;2.45;1.50;;;14.30;99.90;;;;;;4994253;28;20044;-75
2023/07/14 03:31:01;;;;;;;1.92;1.55;;;14.30;99.90;;;;;;4987596;28;20080;-75
2023/07/14 03:33:27;;;;;;;2.40;1.70;;;14.20;99.90;;;;;;4988089;28;20097;-72
2023/07/14 03:35:53;;;;;;;1.98;1.35;;;14.20;99.90;;;;;;4987509;28;20042;-74
2023/07/14 03:38:19;;;;;;;1.65;1.40;;;14.20;99.90;;;;;;4985546;28;20095;-73
2023/07/14 03:40:45;;;;;;;1.30;1.20;;;14.10;99.90;;;;;;4987551;28;20045;-73
2023/07/14 03:43:10;;;;;;;1.65;1.45;;;14.10;99.90;;;;;;4987442;28;20046;-74
2023/07/14 03:45:36;;;;;;;1.85;1.40;;;14.10;99.90;;;;;;4998500;28;20465;-74
2023/07/14 03:48:05;;;;;;;1.40;1.30;;;14.10;99.90;;;;;;5003476;28;20042;-74
2023/07/14 03:50:31;;;;;;;1.60;1.20;;;14.10;99.90;;;;;;4987525;28;20158;-73
2023/07/14 03:52:57;;;;;;;3.17;1.40;;;14.10;99.90;;;;;;4987068;28;20194;-74
2023/07/14 03:55:23;;;;;;;1.20;1.10;;;14.10;99.90;;;;;;4988253;28;20050;-74
2023/07/14 03:57:48;;;;;;;1.25;1.13;;;14.10;99.90;;;;;;4987322;28;20054;-74
2023/07/14 04:00:17;;;;;;;1.38;1.20;;;14.00;99.90;;;;;;5017453;28;20042;-74
2023/07/14 04:02:46;;;;;;;1.92;1.40;;;14.10;99.90;;;;;;4986160;28;20129;-74
2023/07/14 04:05:13;;;;;;;1.70;1.20;;;14.10;99.90;;;;;;4997164;28;20034;-74
2023/07/14 04:07:40;;;;;;;1.77;1.20;;;14.10;99.90;;;;;;4986014;28;20042;-74
2023/07/14 04:10:08;;;;;;;1.48;1.00;;;14.10;99.90;;;;;;4987238;28;20050;-74
2023/07/14 04:12:34;;;;;;;2.03;1.20;;;14.10;99.90;;;;;;4986581;28;20067;-74
2023/07/14 04:15:00;;;;;;;1.80;1.50;;;14.10;99.90;;;;;;4970799;28;20038;-74
2023/07/14 04:17:26;;;;;;;1.63;1.33;;;14.10;99.90;;;;;;4986613;28;20087;-74
2023/07/14 04:19:52;;;;;;;;;;;14.10;99.90;;;;;;4987124;28;20042;-74
2023/07/14 04:22:19;;;;;;;1.67;1.10;;;14.10;99.90;;;;;;4985870;28;19922;-74
2023/07/14 04:24:45;;;;;;;1.60;1.10;;;14.10;99.90;;;;;;4986616;28;20046;-74
2023/07/14 04:27:12;;;;;;;1.00;0.90;;;14.10;99.90;;;;;;5019025;28;20115;-74
2023/07/14 04:29:39;;;;;;;1.60;1.10;;;14.20;99.90;;;;;;4986580;28;20072;-75
2023/07/14 04:32:06;;;;;;;1.50;1.20;;;14.20;99.90;;;;;;4990104;28;20050;-74
2023/07/14 04:34:32;;;;;;;1.92;1.30;;;14.20;99.90;;;;;;4992208;28;20536;-75
2023/07/14 04:36:58;;;;;;;1.27;1.00;;;14.30;99.90;;;;;;4986133;28;20038;-75
2023/07/14 04:39:24;;;;;;;1.42;1.30;;;14.30;99.90;;;;;;4990655;28;20076;-75
2023/07/14 04:41:50;;;;;;;;;;;14.30;99.90;;;;;;4990697;28;20100;-74
2023/07/14 04:44:16;;;;;;;1.45;1.05;;;14.30;99.90;;;;;;5002365;28;20323;-75
2023/07/14 04:46:44;;;;;;;1.08;0.98;;;14.40;99.90;;;;;;4984248;28;20546;-75
2023/07/14 04:49:10;;;;;;;1.40;1.08;;;14.40;99.90;;;;;;5017697;28;20404;-74
2023/07/14 04:51:37;;;;;;;1.05;0.95;;;14.40;99.90;;;;;;4980610;28;20061;-73
2023/07/14 04:54:04;;;;;;;1.92;0.93;;;14.40;99.90;;;;;;4985684;28;20058;-75
2023/07/14 04:56:32;;;;;;;0.95;0.80;;;14.50;99.90;;;;;;5014666;28;20500;-72
2023/07/14 04:58:58;;;;;;;1.80;1.30;;;14.50;99.90;;;;;;4988313;28;20081;-72
2023/07/14 05:01:23;;;;;;;1.50;1.40;;;14.50;99.90;;;;;;4986150;28;20085;-74
2023/07/14 05:03:49;;;;;;;2.38;1.33;;;14.60;99.90;;;;;;4984203;28;20048;-74
2023/07/14 05:06:15;;;;;;;1.52;1.20;;;14.60;99.90;;;;;;4988608;28;20082;-75
2023/07/14 05:08:41;;;;;;;1.50;1.13;;;14.70;99.90;;;;;;4987113;28;20436;-74
2023/07/14 05:11:07;;;;;;;1.90;1.40;;;14.70;99.90;;;;;;4999464;28;20038;-73
2023/07/14 05:13:33;;;;;;;1.85;1.50;;;14.70;99.90;;;;;;5015700;28;20095;-74
2023/07/14 05:15:59;;;;;;;1.63;1.25;;;14.70;99.90;;;;;;5014783;28;20443;-76
2023/07/14 05:18:25;;;;;;;1.80;1.40;;;14.80;99.90;;;;;;4982885;28;20042;-76
2023/07/14 05:20:51;;;;;;;2.05;1.35;;;14.80;99.90;;;;;;4987630;28;20498;-76
2023/07/14 05:23:17;;;;;;;1.50;1.02;;;14.90;99.90;;;;;;4985198;28;20134;-76
2023/07/14 05:25:44;;;;;;;;;;;14.90;99.90;;;;;;5000431;28;20462;-76
2023/07/14 05:28:10;;;;;;;1.83;1.40;;;15.00;99.90;;;;;;4984165;28;19945;-76
2023/07/14 05:30:36;;;;;;;1.08;0.90;;;15.10;99.90;;;;;;5000367;28;20327;-76
2023/07/14 05:33:02;;;;;;;1.38;1.00;;;15.10;99.90;;;;;;4983928;28;20034;-76
2023/07/14 05:35:28;;;;;;;0.98;0.80;;;15.10;99.90;;;;;;4983564;28;20046;-75
2023/07/14 05:37:54;;;;;;;4.13;1.20;;;15.20;99.90;;;;;;5003608;28;20054;-76
2023/07/14 05:40:20;;;;;;;2.75;1.55;;;15.20;99.90;;;;;;5014431;28;20487;-75
2023/07/14 05:42:46;;;;;;;;;;;15.20;99.90;;;;;;4988179;28;20034;-75
2023/07/14 05:45:12;;;;;;;2.20;1.30;;;15.30;99.90;;;;;;4993916;28;19929;-75
2023/07/14 05:47:42;;;;;;;1.20;0.82;;;15.40;99.90;;;;;;4981035;28;20517;-75
2023/07/14 05:50:08;;;;;;;0.98;0.88;;;15.50;99.90;;;;;;4982019;28;20045;-76
2023/07/14 05:52:35;;;;;;;1.20;1.08;;;15.50;99.90;;;;;;5014871;28;20053;-75
2023/07/14 05:55:03;;;;;;;1.42;1.10;;;15.60;99.90;;;;;;4984699;28;20107;-75
2023/07/14 05:57:30;;;;;;;1.20;0.88;;;15.70;99.90;;;;;;4968730;28;20079;-75
2023/07/14 05:59:55;;;;;;;1.10;0.93;;;15.80;99.90;;;;;;4983991;28;20459;-74
2023/07/14 06:02:21;;;;;;;1.77;1.08;;;15.80;99.90;;;;;;4984327;28;20525;-76
2023/07/14 06:04:48;;;;;;;2.97;1.02;;;15.90;99.90;;;;;;4986036;28;20050;-75
2023/07/14 06:07:15;;;;;;;2.05;0.95;;;16.00;99.90;;;;;;4986361;28;20042;-82
2023/07/14 06:09:51;;;;;;;1.98;1.13;;;16.10;99.90;;;;;;4971719;28;20080;-75
2023/07/14 06:12:17;;;;;;;1.33;1.00;;;16.20;99.90;;;;;;4973276;28;20393;-75
2023/07/14 06:14:43;;;;;;;1.40;1.10;;;16.20;99.90;;;;;;4989311;28;20042;-75
2023/07/14 06:17:11;;;;;;;1.40;0.90;;;16.30;99.90;;;;;;4989334;28;20054;-75
2023/07/14 06:19:37;;;;;;;1.85;1.25;;;16.50;99.90;;;;;;4971041;28;20187;-75
2023/07/14 06:22:06;;;;;;;2.30;1.20;;;16.50;99.90;;;;;;4968902;28;20122;-76
2023/07/14 06:24:34;;;;;;;1.90;1.50;;;16.60;99.90;;;;;;4982716;28;20049;-76
2023/07/14 06:27:01;;;;;;;2.10;1.40;;;16.80;99.90;;;;;;4977954;28;20042;-76
2023/07/14 06:29:27;;;;;;;1.10;0.95;;;16.80;91.30;;;;;;4972988;28;20084;-76
2023/07/14 06:31:54;;;;;;;1.70;1.35;;;16.90;81.70;;;;;;4978762;28;20120;-76
2023/07/14 06:34:20;;;;;;;2.63;1.45;;;17.00;33.70;;;;;;4976177;28;20475;-76
2023/07/14 06:36:46;;;;;;;1.65;1.20;;;17.10;15.90;;;;;;4980102;28;20137;-75
2023/07/14 06:39:12;;;;;;;2.55;1.40;;;17.10;1.00;;;;;;4975047;28;20072;-76
2023/07/14 06:41:38;;;;;;;1.60;1.20;;;17.30;1.00;;;;;;4975995;28;20141;-75
2023/07/14 06:44:03;;;;;;;;;;;17.30;99.90;;;;;;4980201;28;20042;-76
2023/07/14 06:46:30;;;;;;;3.08;1.50;;;17.40;99.90;;;;;;5002279;28;19929;-76
2023/07/14 06:48:57;;;;;;;1.67;1.15;;;17.60;99.90;;;;;;4972987;28;20050;-74
2023/07/14 06:51:24;;;;;;;2.33;1.25;;;17.70;99.90;;;;;;4985953;28;20865;-76
2023/07/14 06:53:49;;;;;;;2.28;1.30;;;17.70;99.90;;;;;;5010283;28;20046;-76
2023/07/14 06:56:15;;;;;;;;;;;17.80;99.90;;;;;;4967657;28;20060;-75
2023/07/14 06:58:41;;;;;;;1.58;1.13;;;17.90;89.00;;;;;;4993302;28;19922;-75
2023/07/14 07:01:07;;;;;;;3.00;1.70;;;18.00;49.60;;;;;;4960682;28;20545;-76
2023/07/14 07:03:34;;;;;;;;;;;18.10;99.90;;;;;;4962807;28;20059;-75
2023/07/14 07:06:00;;;;;;;2.70;1.13;;;18.10;99.90;;;;;;4978968;28;20273;-75
2023/07/14 07:08:26;;;;;;;3.28;1.50;;;18.30;99.90;;;;;;4978982;28;20053;-76
2023/07/14 07:10:52;;;;;;;;;;;18.40;1.00;;;;;;4968562;28;20039;-76
2023/07/14 07:13:18;;;;;;;1.95;1.33;;;18.60;1.00;;;;;;4978617;28;20009;-75
2023/07/14 07:15:44;;;;;;;2.75;1.30;;;18.60;99.90;;;;;;4981452;28;20047;-78
2023/07/14 07:18:10;;;;;;;;;;;18.80;99.90;;;;;;4978456;28;20076;-76
2023/07/14 07:20:37;;;;;;;1.75;1.20;;;18.90;98.30;;;;;;5008367;28;20439;-76
2023/07/14 07:23:03;;;;;;;2.15;1.10;;;19.00;77.30;;;;;;5042454;28;20396;-76
2023/07/14 07:25:28;;;;;;;;;;;19.10;19.80;;;;;;4976052;28;20108;-76
2023/07/14 07:27:54;;;;;;;2.83;1.17;;;19.20;1.00;;;;;;4980496;28;20279;-76
2023/07/14 07:30:20;;;;;;;;;;;19.30;99.90;;;;;;4972071;28;20071;-76
2023/07/14 07:32:46;;;;;;;1.67;1.20;;;19.40;99.90;;;;;;4979347;28;19926;-76
2023/07/14 07:35:13;;;;;;;2.92;1.35;;;19.50;99.90;;;;;;4987648;28;20042;-75
2023/07/14 07:37:39;;;;;;;2.50;1.42;;;19.50;66.30;;;;;;4988239;28;20051;-75
2023/07/14 07:40:05;;;;;;;;;;;19.70;99.90;;;;;;4972910;28;20083;-76
2023/07/14 07:42:33;;;;;;;;;;;19.80;99.90;;;;;;4972617;28;19936;-76
2023/07/14 07:44:58;;;;;;;3.42;1.55;;;20.00;74.10;;;;;;4989627;28;19966;-76
2023/07/14 07:47:24;;;;;;;;;;;20.00;99.90;;;;;;4989013;28;20133;-76
2023/07/14 07:49:49;;;;;;;1.80;1.20;;;20.10;99.90;;;;;;4972085;28;20391;-76
2023/07/14 07:52:15;;;;;;;;;;;20.20;99.90;;;;;;4989896;28;20042;-76
2023/07/14 07:54:41;;;;;;;2.63;1.48;;;20.10;99.90;;;;;;5004618;28;19918;-76
2023/07/14 07:57:09;;;;;;;1.92;1.20;;;20.20;99.90;;;;;;5013702;28;20050;-76
2023/07/14 07:59:38;;;;;;;2.55;1.30;;;20.40;99.90;;;;;;4989751;28;20064;-76
2023/07/14 08:02:04;;;;;;;1.95;1.30;;;20.50;99.90;;;;;;4987793;28;20053;-76
2023/07/14 08:04:30;;;;;;;2.10;1.50;;;20.70;99.90;;;;;;4987891;28;20577;-76
2023/07/14 08:06:55;;;;;;;;;;;20.80;99.90;;;;;;5004756;28;20125;-76
2023/07/14 08:09:21;;;;;;;3.85;2.30;;;20.70;91.50;;;;;;5004080;28;19917;-76
2023/07/14 08:11:48;;;;;;;2.95;2.30;;;20.60;99.90;;;;;;4971655;28;20050;-77
2023/07/14 08:14:18;;;;;;;3.85;2.38;;;20.50;94.80;;;;;;4971839;28;20078;-76
2023/07/14 08:16:45;;;;;;;4.13;2.50;;;20.60;94.70;;;;;;4988072;28;20042;-76
2023/07/14 08:19:13;;;;;;;2.83;2.15;;;20.70;68.30;;;;;;5020605;28;20435;-78
2023/07/14 08:21:39;;;;;;;3.47;2.22;;;21.00;57.60;;;;;;4987675;28;20050;-75
2023/07/14 08:24:06;;;;;;;4.07;2.10;;;21.20;3.40;;;;;;4986711;28;20462;-75
2023/07/14 08:26:34;;;;;;;1.70;1.40;;;21.40;35.00;;;;;;4986746;28;20480;-75
2023/07/14 08:29:00;;;;;;;1.67;1.23;;;21.80;30.00;;;;;;4980601;28;20045;-75
2023/07/14 08:31:26;;;;;;;2.53;1.70;;;21.90;1.00;;;;;;4987191;28;20047;-75
2023/07/14 08:33:51;;;;;;;2.33;1.40;;;21.90;1.00;;;;;;5002994;28;20397;-75
2023/07/14 08:36:17;;;;;;;2.55;1.40;;;22.00;99.90;;;;;;4988309;28;20038;-75
2023/07/14 08:38:43;;;;;;;2.55;1.33;;;22.00;99.90;;;;;;4986961;28;20057;-75
2023/07/14 08:41:09;;;;;;;1.90;1.30;;;21.90;99.90;;;;;;4986884;28;20042;-75
2023/07/14 08:43:38;;;;;;;1.58;1.30;;;22.10;99.90;;;;;;4986943;28;20061;-75
2023/07/14 08:46:28;;;;;;;1.92;1.35;;;22.10;99.90;;;;;;4980674;28;20050;-74
2023/07/14 08:49:03;;;;;;;1.65;1.17;;;22.10;99.90;;;;;;5015141;28;20499;-75
2023/07/14 08:51:36;;;;;;;2.47;1.42;;;22.10;99.90;;;;;;4986984;28;20045;-75
2023/07/14 08:54:17;;;;;;;1.60;1.00;;;21.90;99.90;;;;;;4986833;28;20038;-74
2023/07/14 08:56:45;;;;;;;2.10;1.35;;;21.50;99.90;;;;;;4986830;28;20485;-74
2023/07/14 08:59:20;;;;;;;1.45;1.05;;;21.10;99.90;;;;;;4986692;28;20042;-74
2023/07/14 09:01:53;;;;;;;1.73;1.17;;;21.10;99.90;;;;;;4986625;28;20082;-75
2023/07/14 09:04:37;;;;;;;2.15;1.25;;;21.30;99.90;;;;;;4986732;28;20131;-74
2023/07/14 09:07:08;;;;;;;1.83;1.30;;;21.60;99.90;;;;;;4972763;28;20054;-75
2023/07/14 09:09:36;;;;;;;2.67;1.30;;;21.80;99.90;;;;;;5052791;28;20039;-75
2023/07/14 09:12:20;;;;;;;1.98;1.50;;;22.10;99.90;;;;;;4986873;28;20050;-75
2023/07/14 09:14:58;;;;;;;1.75;1.20;;;22.40;99.90;;;;;;4956060;28;20121;-75
2023/07/14 09:17:32;;;;;;;2.08;1.23;;;22.60;99.90;;;;;;4964696;28;20050;-78
2023/07/14 09:20:20;;;;;;;1.58;1.10;;;23.00;99.90;;;;;;4970869;28;20129;-75
2023/07/14 09:22:51;;;;;;;1.48;0.90;;;23.30;99.90;;;;;;4987080;28;20042;-75
2023/07/14 09:25:41;;;;;;;1.38;0.90;;;23.60;99.90;;;;;;4987453;28;20147;-75
2023/07/14 09:28:29;;;;;;;1.92;1.23;;;23.30;97.00;;;;;;4986654;28;20046;-74
2023/07/14 09:30:58;;;;;;;2.25;1.23;;;22.90;86.10;;;;;;4986398;28;20121;-74
2023/07/14 09:33:26;;;;;;;1.98;0.98;;;22.70;75.10;;;;;;4986504;28;20471;-75
2023/07/14 09:35:52;;;;;;;1.48;1.00;;;22.40;78.70;;;;;;4986680;28;20402;-75
2023/07/14 09:38:23;;;;;;;1.45;1.00;;;22.50;98.20;;;;;;4968571;28;20046;-75
2023/07/14 09:40:54;;;;;;;1.50;1.10;;;22.30;95.30;;;;;;5006419;28;20656;-75
2023/07/14 09:43:20;;;;;;;1.83;0.93;;;22.10;97.70;;;;;;4986993;28;20042;-74
2023/07/14 09:45:46;;;;;;;2.17;1.23;;;22.10;99.90;;;;;;4990595;28;20517;-75
2023/07/14 09:48:39;;;;;;;1.83;1.02;;;22.50;99.90;;;;;;4980796;28;20050;-75
2023/07/14 09:51:10;;;;;;;2.30;1.20;;;22.70;95.70;;;;;;4984859;28;20103;-75
2023/07/14 09:53:37;;;;;;;1.95;1.02;;;22.20;80.60;;;;;;5005693;28;20055;-75
2023/07/14 09:56:12;;;;;;;2.33;1.10;;;21.90;91.90;;;;;;4984098;28;20509;-75
2023/07/14 09:58:38;;;;;;;1.52;1.20;;;21.80;99.90;;;;;;4990078;28;20042;-75
2023/07/14 10:01:12;;;;;;;1.45;1.00;;;21.80;99.90;;;;;;4989809;28;20050;-75
2023/07/14 10:03:43;;;;;;;1.50;1.15;;;21.90;99.90;;;;;;4973162;28;20057;-75
2023/07/14 10:06:28;;;;;;;2.08;1.10;;;21.80;99.90;;;;;;4990129;28;20046;-75
2023/07/14 10:08:57;;;;;;;2.38;1.48;;;22.20;99.90;;;;;;4991149;28;20089;-75
2023/07/14 10:11:29;;;;;;;1.30;1.00;;;22.60;99.90;;;;;;4989912;28;20050;-75
2023/07/14 10:14:06;;;;;;;2.33;1.27;;;22.90;87.00;;;;;;4989786;28;20493;-75
2023/07/14 10:16:40;;;;;;;2.67;1.33;;;23.20;93.90;;;;;;4973787;28;20035;-75
2023/07/14 10:19:12;;;;;;;2.35;1.00;;;23.50;91.40;;;;;;4991081;28;20096;-75
2023/07/14 10:21:53;;;;;;;1.17;0.90;;;23.80;27.40;;;;;;4990774;28;20053;-75
2023/07/14 10:24:20;;;;;;;2.03;1.00;;;24.00;10.10;;;;;;4989983;28;20458;-75
2023/07/14 10:26:58;;;;;;;1.27;1.00;;;24.30;13.60;;;;;;4990557;28;20078;-75
2023/07/14 10:29:26;;;;;;;2.17;1.20;;;24.10;1.00;;;;;;5025294;28;20073;-75
2023/07/14 10:32:24;;;;;;;3.17;1.88;;;23.90;1.00;;;;;;4987912;28;20087;-75
2023/07/14 10:35:03;;;;;;;2.30;1.23;;;23.20;1.00;;;;;;5017649;28;20440;-75
2023/07/14 10:37:39;;;;;;;2.50;1.20;;;23.20;21.50;;;;;;4986621;28;20084;-75
2023/07/14 10:40:13;;;;;;;2.30;1.43;;;23.30;29.00;;;;;;5001752;28;20042;-75
2023/07/14 10:42:46;;;;;;;1.83;1.17;;;23.60;5.60;;;;;;4989592;28;20380;-74
2023/07/14 10:45:13;;;;;;;1.27;1.10;;;23.80;12.20;;;;;;4987413;28;20050;-74
2023/07/14 10:47:49;;;;;;;2.38;1.10;;;24.00;1.00;;;;;;4985591;28;20046;-74
2023/07/14 10:50:36;;;;;;;1.20;1.00;;;24.10;1.00;;;;;;4988436;28;20057;-74
2023/07/14 10:53:32;;;;;;;1.63;1.20;;;23.90;1.00;;;;;;4968890;28;20046;-73
2023/07/14 10:56:02;;;;;;;1.30;1.00;;;23.60;1.00;;;;;;4986225;28;20102;-73
2023/07/14 10:58:58;;;;;;;1.75;1.10;;;23.70;1.00;;;;;;4988674;28;20039;-73
2023/07/14 11:01:34;;;;;;;2.00;1.20;;;23.40;1.00;;;;;;4969808;28;20050;-73
2023/07/14 11:04:13;;;;;;;2.15;1.27;;;23.20;1.00;;;;;;4986272;28;20631;-73
2023/07/14 11:06:44;;;;;;;1.58;0.95;;;23.30;5.40;;;;;;4987520;28;20639;-73
2023/07/14 11:09:12;;;;;;;1.00;0.88;;;23.50;10.90;;;;;;4986849;28;20147;-73
2023/07/14 11:11:59;;;;;;;1.10;1.00;;;23.50;1.00;;;;;;4970650;28;20074;-73
2023/07/14 11:14:41;;;;;;;1.77;1.23;;;23.60;1.00;;;;;;4986602;28;20137;-73
2023/07/14 11:17:07;;;;;;;2.15;1.40;;;23.30;1.00;;;;;;4986322;28;20050;-73
2023/07/14 11:20:12;;;;;;;1.98;1.30;;;23.10;1.00;;;;;;4989173;28;20520;-73
2023/07/14 11:22:59;;;;;;;2.05;1.10;;;22.90;1.00;;;;;;4987002;28;20042;-73
2023/07/14 11:25:38;;;;;;;1.67;1.10;;;22.80;1.00;;;;;;4986920;28;20420;-73
2023/07/14 11:28:44;;;;;;;1.77;1.17;;;22.70;1.00;;;;;;4986730;28;20095;-73
2023/07/14 11:31:27;;;;;;;1.70;1.10;;;22.70;8.20;;;;;;4986302;28;20594;-73
2023/07/14 11:34:11;;;;;;;1.65;1.30;;;23.10;55.50;;;;;;4989681;28;20042;-73
2023/07/14 11:36:50;;;;;;;1.83;1.25;;;23.10;1.00;;;;;;5016176;28;20129;-73
2023/07/14 11:39:43;;;;;;;2.17;1.20;;;23.20;1.00;;;;;;4983133;28;20060;-74
2023/07/14 11:42:18;;;;;;;2.05;1.30;;;23.00;1.00;;;;;;4986159;28;20054;-74
2023/07/14 11:44:45;;;;;;;2.00;1.33;;;22.90;1.00;;;;;;4968356;28;20038;-76
2023/07/14 11:47:39;;;;;;;1.48;1.00;;;23.10;1.00;;;;;;4977270;28;20118;-76
2023/07/14 11:50:34;;;;;;;1.27;1.00;;;23.50;1.00;;;;;;5019474;28;20062;-75
2023/07/14 11:53:06;;;;;;;1.75;1.08;;;23.70;1.00;;;;;;4974101;28;20047;-75
2023/07/14 11:55:36;;;;;;;1.30;0.90;;;23.80;1.00;;;;;;4982727;28;20111;-75
2023/07/14 11:58:13;;;;;;;1.17;0.80;;;23.70;1.00;;;;;;5018300;27;20050;-75
2023/07/14 12:00:47;;;;;;;0.88;0.80;;;23.60;1.00;;;;;;4986667;28;20071;-76
2023/07/14 12:03:30;;;;;;;1.70;1.05;;;23.80;6.20;;;;;;4983953;28;20046;-75
2023/07/14 12:06:22;;;;;;;1.20;1.10;;;24.00;1.00;;;;;;5005663;28;20055;-75
2023/07/14 12:09:10;;;;;;;2.20;1.50;;;23.80;1.00;;;;;;4983926;28;20142;-75
2023/07/14 12:11:39;;;;;;;1.50;1.10;;;23.50;1.00;;;;;;5017267;28;20038;-75
2023/07/14 12:14:37;;;;;;;1.75;1.45;;;23.70;1.00;;;;;;4985233;28;20103;-75
2023/07/14 12:17:24;;;;;;;2.05;1.33;;;23.60;1.00;;;;;;4996676;28;20054;-79
2023/07/14 12:19:54;;;;;;;1.40;1.17;;;23.40;1.00;;;;;;4970518;28;20038;-75
2023/07/14 12:22:41;;;;;;;1.77;1.20;;;23.40;1.00;;;;;;4982330;28;20066;-75
2023/07/14 12:25:12;;;;;;;3.65;1.75;;;23.30;1.00;;;;;;4987823;28;20260;-75
2023/07/14 12:27:41;;;;;;;1.80;1.25;;;23.10;1.00;;;;;;4986042;28;20133;-75
2023/07/14 12:30:25;;;;;;;2.10;1.20;;;23.10;1.00;;;;;;4980331;28;20133;-75
2023/07/14 12:32:55;;;;;;;1.95;1.20;;;23.00;1.00;;;;;;4985764;28;20056;-87
2023/07/14 12:35:25;;;;;;;1.63;1.20;;;22.80;1.00;;;;;;4987903;28;20050;-75
2023/07/14 12:37:50;;;;;;;1.42;1.17;;;22.70;1.00;;;;;;4968606;28;20046;-74
2023/07/14 12:40:24;;;;;;;1.40;1.17;;;22.60;1.00;;;;;;4946825;28;20070;-74
2023/07/14 12:42:51;;;;;;;1.40;1.02;;;22.60;1.00;;;;;;4995819;28;20042;-75
2023/07/14 12:45:20;;;;;;;1.77;1.13;;;22.50;1.00;;;;;;5003605;28;20401;-75
2023/07/14 12:47:49;;;;;;;1.90;1.25;;;22.40;8.70;;;;;;5014495;28;20049;-73
2023/07/14 12:50:16;;;;;;;1.80;1.38;;;22.20;14.10;;;;;;4976015;28;20422;-74
2023/07/14 12:52:44;;;;;;;2.53;1.40;;;22.10;13.90;;;;;;4983585;28;20056;-73
2023/07/14 12:55:18;;;;;;;2.85;1.50;;;22.00;22.40;;;;;;4983854;28;20054;-74
2023/07/14 12:57:47;;;;;;;2.65;1.48;;;22.10;13.90;;;;;;5024407;28;20592;-80
2023/07/14 13:00:29;;;;;;;1.92;1.55;;;22.30;23.60;;;;;;4986867;28;20121;-75
2023/07/14 13:02:56;;;;;;;2.72;1.65;;;22.50;11.90;;;;;;4984517;28;20054;-75
2023/07/14 13:05:35;;;;;;;1.42;1.17;;;22.70;30.70;;;;;;4984481;28;20485;-78
2023/07/14 13:08:04;;;;;;;1.50;1.10;;;22.90;24.80;;;;;;4998851;28;20065;-74
2023/07/14 13:10:40;;;;;;;2.38;1.65;;;23.10;32.90;;;;;;4984068;28;20074;-75